sensor_id;sensor_type;location;lat;lon;timestamp;pressure;altitude;pressure_sealevel;temperature;humidity
69402;BME280;56589;51.992;5.924;2023-04-19T00:00:43;102221.53;;;9.80;63.41
69402;BME280;56589;51.992;5.924;2023-04-19T00:03:09;102211.94;;;9.79;63.22
69402;BME280;56589;51.992;5.924;2023-04-19T00:05:38;102201.47;;;9.79;63.48
69402;BME280;56589;51.992;5.924;2023-04-19T00:08:04;102212.09;;;9.75;63.67
69402;BME280;56589;51.992;5.924;2023-04-19T00:10:30;102203.41;;;9.73;63.51
69402;BME280;56589;51.992;5.924;2023-04-19T00:12:56;102205.22;;;9.71;63.47
69402;BME280;56589;51.992;5.924;2023-04-19T00:15:22;102209.72;;;9.68;63.79
69402;BME280;56589;51.992;5.924;2023-04-19T00:17:48;102211.63;;;9.64;63.92
69402;BME280;56589;51.992;5.924;2023-04-19T00:20:13;102205.63;;;9.61;63.97
69402;BME280;56589;51.992;5.924;2023-04-19T00:22:42;102205.75;;;9.58;64.33
69402;BME280;56589;51.992;5.924;2023-04-19T00:25:08;102199.75;;;9.54;64.37
69402;BME280;56589;51.992;5.924;2023-04-19T00:27:34;102199.81;;;9.53;64.52
69402;BME280;56589;51.992;5.924;2023-04-19T00:30:00;102195.59;;;9.48;64.46
69402;BME280;56589;51.992;5.924;2023-04-19T00:32:26;102193.25;;;9.41;64.65
69402;BME280;56589;51.992;5.924;2023-04-19T00:34:52;102196.91;;;9.37;65.15
69402;BME280;56589;51.992;5.924;2023-04-19T00:37:17;102191.00;;;9.32;64.91
69402;BME280;56589;51.992;5.924;2023-04-19T00:39:46;102188.59;;;9.26;65.59
69402;BME280;56589;51.992;5.924;2023-04-19T00:42:12;102187.94;;;9.19;65.58
69402;BME280;56589;51.992;5.924;2023-04-19T00:44:37;102184.53;;;9.15;65.26
69402;BME280;56589;51.992;5.924;2023-04-19T00:47:03;102180.31;;;9.11;65.93
69402;BME280;56589;51.992;5.924;2023-04-19T00:49:29;102181.34;;;9.07;65.77
69402;BME280;56589;51.992;5.924;2023-04-19T00:51:56;102183.16;;;9.05;66.12
69402;BME280;56589;51.992;5.924;2023-04-19T00:54:22;102177.06;;;9.05;66.32
69402;BME280;56589;51.992;5.924;2023-04-19T00:56:51;102178.75;;;9.06;65.93
69402;BME280;56589;51.992;5.924;2023-04-19T00:59:17;102183.97;;;9.07;66.33
69402;BME280;56589;51.992;5.924;2023-04-19T01:01:43;102168.34;;;9.04;66.47
69402;BME280;56589;51.992;5.924;2023-04-19T01:04:09;102169.31;;;9.02;66.40
69402;BME280;56589;51.992;5.924;2023-04-19T01:06:35;102169.34;;;9.00;66.84
69402;BME280;56589;51.992;5.924;2023-04-19T01:09:04;102172.03;;;8.99;67.02
69402;BME280;56589;51.992;5.924;2023-04-19T01:11:30;102163.31;;;8.98;66.67
69402;BME280;56589;51.992;5.924;2023-04-19T01:13:58;102173.81;;;8.98;66.79
69402;BME280;56589;51.992;5.924;2023-04-19T01:16:25;102172.94;;;8.98;66.83
69402;BME280;56589;51.992;5.924;2023-04-19T01:18:51;102167.72;;;8.98;66.77
69402;BME280;56589;51.992;5.924;2023-04-19T01:21:17;102166.00;;;8.96;66.92
69402;BME280;56589;51.992;5.924;2023-04-19T01:23:45;102172.09;;;8.97;67.33
69402;BME280;56589;51.992;5.924;2023-04-19T01:26:11;102173.00;;;8.96;66.98
69402;BME280;56589;51.992;5.924;2023-04-19T01:28:37;102163.53;;;8.92;66.93
69402;BME280;56589;51.992;5.924;2023-04-19T01:31:02;102165.38;;;8.90;67.18
69402;BME280;56589;51.992;5.924;2023-04-19T01:33:28;102168.13;;;8.85;67.08
69402;BME280;56589;51.992;5.924;2023-04-19T01:35:54;102163.88;;;8.83;67.22
69402;BME280;56589;51.992;5.924;2023-04-19T01:38:20;102167.50;;;8.79;67.35
69402;BME280;56589;51.992;5.924;2023-04-19T01:40:48;102164.13;;;8.75;67.23
69402;BME280;56589;51.992;5.924;2023-04-19T01:43:16;102168.56;;;8.73;67.17
69402;BME280;56589;51.992;5.924;2023-04-19T01:45:42;102169.56;;;8.69;67.58
69402;BME280;56589;51.992;5.924;2023-04-19T01:48:08;102169.63;;;8.67;67.39
69402;BME280;56589;51.992;5.924;2023-04-19T01:50:33;102168.81;;;8.65;67.50
69402;BME280;56589;51.992;5.924;2023-04-19T01:52:59;102165.50;;;8.60;68.03
69402;BME280;56589;51.992;5.924;2023-04-19T01:55:25;102159.47;;;8.58;68.22
69402;BME280;56589;51.992;5.924;2023-04-19T01:57:54;102160.41;;;8.56;68.01
69402;BME280;56589;51.992;5.924;2023-04-19T02:00:20;102163.16;;;8.53;68.49
69402;BME280;56589;51.992;5.924;2023-04-19T02:02:46;102169.31;;;8.50;68.25
69402;BME280;56589;51.992;5.924;2023-04-19T02:05:12;102160.69;;;8.48;68.27
69402;BME280;56589;51.992;5.924;2023-04-19T02:07:38;102161.59;;;8.47;68.47
69402;BME280;56589;51.992;5.924;2023-04-19T02:10:05;102159.88;;;8.46;68.50
69402;BME280;56589;51.992;5.924;2023-04-19T02:12:34;102159.06;;;8.44;68.18
69402;BME280;56589;51.992;5.924;2023-04-19T02:15:03;102154.75;;;8.43;68.48
69402;BME280;56589;51.992;5.924;2023-04-19T02:17:30;102153.03;;;8.42;68.64
69402;BME280;56589;51.992;5.924;2023-04-19T02:19:55;102157.28;;;8.45;68.36
69402;BME280;56589;51.992;5.924;2023-04-19T02:22:21;102158.97;;;8.47;68.25
69402;BME280;56589;51.992;5.924;2023-04-19T02:24:49;102162.31;;;8.51;68.72
69402;BME280;56589;51.992;5.924;2023-04-19T02:27:15;102165.72;;;8.54;68.86
69402;BME280;56589;51.992;5.924;2023-04-19T02:29:41;102159.47;;;8.58;68.81
69402;BME280;56589;51.992;5.924;2023-04-19T02:32:10;102168.06;;;8.62;68.85
69402;BME280;56589;51.992;5.924;2023-04-19T02:34:36;102161.81;;;8.66;68.65
69402;BME280;56589;51.992;5.924;2023-04-19T02:37:02;102166.94;;;8.69;68.39
69402;BME280;56589;51.992;5.924;2023-04-19T02:39:28;102158.09;;;8.73;68.53
69402;BME280;56589;51.992;5.924;2023-04-19T02:41:54;102158.84;;;8.77;68.53
69402;BME280;56589;51.992;5.924;2023-04-19T02:44:20;102164.03;;;8.78;68.17
69402;BME280;56589;51.992;5.924;2023-04-19T02:46:47;102168.28;;;8.81;68.04
69402;BME280;56589;51.992;5.924;2023-04-19T02:49:16;102155.16;;;8.82;68.38
69402;BME280;56589;51.992;5.924;2023-04-19T02:51:42;102156.03;;;8.83;68.06
69402;BME280;56589;51.992;5.924;2023-04-19T02:54:08;102162.06;;;8.85;67.93
69402;BME280;56589;51.992;5.924;2023-04-19T02:56:35;102164.53;;;8.88;67.98
69402;BME280;56589;51.992;5.924;2023-04-19T02:59:01;102161.97;;;8.86;67.90
69402;BME280;56589;51.992;5.924;2023-04-19T03:01:28;102163.66;;;8.89;67.84
69402;BME280;56589;51.992;5.924;2023-04-19T03:03:53;102163.75;;;8.86;67.77
69402;BME280;56589;51.992;5.924;2023-04-19T03:06:22;102163.66;;;8.89;67.86
69402;BME280;56589;51.992;5.924;2023-04-19T03:08:48;102160.97;;;8.90;67.55
69402;BME280;56589;51.992;5.924;2023-04-19T03:11:14;102160.00;;;8.93;67.57
69402;BME280;56589;51.992;5.924;2023-04-19T03:13:41;102158.25;;;8.93;67.97
69402;BME280;56589;51.992;5.924;2023-04-19T03:16:07;102164.34;;;8.94;67.49
69402;BME280;56589;51.992;5.924;2023-04-19T03:18:33;102160.91;;;8.92;67.79
69402;BME280;56589;51.992;5.924;2023-04-19T03:20:59;102153.00;;;8.93;67.90
69402;BME280;56589;51.992;5.924;2023-04-19T03:23:28;102157.28;;;8.96;67.69
69402;BME280;56589;51.992;5.924;2023-04-19T03:25:54;102160.00;;;8.93;67.74
69402;BME280;56589;51.992;5.924;2023-04-19T03:28:20;102159.06;;;8.95;67.37
69402;BME280;56589;51.992;5.924;2023-04-19T03:30:46;102151.22;;;8.94;67.22
69402;BME280;56589;51.992;5.924;2023-04-19T03:33:12;102154.75;;;8.94;67.36
69402;BME280;56589;51.992;5.924;2023-04-19T03:35:38;102154.69;;;8.96;67.28
69402;BME280;56589;51.992;5.924;2023-04-19T03:38:04;102154.78;;;8.93;67.41
69402;BME280;56589;51.992;5.924;2023-04-19T03:40:32;102143.56;;;8.89;67.39
69402;BME280;56589;51.992;5.924;2023-04-19T03:42:58;102151.44;;;8.88;67.39
69402;BME280;56589;51.992;5.924;2023-04-19T03:45:24;102161.06;;;8.87;66.99
69402;BME280;56589;51.992;5.924;2023-04-19T03:47:50;102154.13;;;8.86;67.15
69402;BME280;56589;51.992;5.924;2023-04-19T03:50:16;102158.50;;;8.86;66.95
69402;BME280;56589;51.992;5.924;2023-04-19T03:52:42;102159.53;;;8.82;66.74
69402;BME280;56589;51.992;5.924;2023-04-19T03:55:09;102152.56;;;8.81;66.68
69402;BME280;56589;51.992;5.924;2023-04-19T03:57:38;102164.03;;;8.78;66.71
69402;BME280;56589;51.992;5.924;2023-04-19T04:00:04;102156.31;;;8.74;66.56
69402;BME280;56589;51.992;5.924;2023-04-19T04:02:31;102166.09;;;8.68;66.43
69402;BME280;56589;51.992;5.924;2023-04-19T04:04:57;102163.69;;;8.62;66.60
69402;BME280;56589;51.992;5.924;2023-04-19T04:07:23;102161.28;;;8.56;66.71
69402;BME280;56589;51.992;5.924;2023-04-19T04:09:49;102164.09;;;8.50;66.43
69402;BME280;56589;51.992;5.924;2023-04-19T04:12:15;102162.53;;;8.45;66.18
69402;BME280;56589;51.992;5.924;2023-04-19T04:14:43;102161.88;;;8.38;66.30
69402;BME280;56589;51.992;5.924;2023-04-19T04:17:09;102168.13;;;8.34;66.62
69402;BME280;56589;51.992;5.924;2023-04-19T04:19:35;102159.56;;;8.29;66.26
69402;BME280;56589;51.992;5.924;2023-04-19T04:22:01;102157.16;;;8.23;66.38
69402;BME280;56589;51.992;5.924;2023-04-19T04:24:26;102160.78;;;8.19;66.16
69402;BME280;56589;51.992;5.924;2023-04-19T04:26:52;102160.91;;;8.14;66.13
69402;BME280;56589;51.992;5.924;2023-04-19T04:29:18;102165.34;;;8.12;66.08
69402;BME280;56589;51.992;5.924;2023-04-19T04:31:46;102165.41;;;8.10;66.36
69402;BME280;56589;51.992;5.924;2023-04-19T04:34:12;102158.47;;;8.08;65.93
69402;BME280;56589;51.992;5.924;2023-04-19T04:36:38;102157.69;;;8.06;65.87
69402;BME280;56589;51.992;5.924;2023-04-19T04:39:04;102162.13;;;8.04;66.09
69402;BME280;56589;51.992;5.924;2023-04-19T04:41:30;102159.59;;;8.01;65.90
69402;BME280;56589;51.992;5.924;2023-04-19T04:43:56;102155.38;;;7.97;65.92
69402;BME280;56589;51.992;5.924;2023-04-19T04:46:22;102161.53;;;7.94;66.07
69402;BME280;56589;51.992;5.924;2023-04-19T04:48:50;102156.38;;;7.93;66.15
69402;BME280;56589;51.992;5.924;2023-04-19T04:51:16;102157.31;;;7.90;65.95
69402;BME280;56589;51.992;5.924;2023-04-19T04:53:42;102163.44;;;7.89;66.13
69402;BME280;56589;51.992;5.924;2023-04-19T04:56:07;102153.09;;;7.86;66.19
69402;BME280;56589;51.992;5.924;2023-04-19T04:58:33;102161.84;;;7.85;66.08
69402;BME280;56589;51.992;5.924;2023-04-19T05:00:59;102161.97;;;7.80;66.32
69402;BME280;56589;51.992;5.924;2023-04-19T05:03:25;102158.56;;;7.77;66.57
69402;BME280;56589;51.992;5.924;2023-04-19T05:05:53;102162.94;;;7.76;66.53
69402;BME280;56589;51.992;5.924;2023-04-19T05:08:19;102163.91;;;7.74;66.18
69402;BME280;56589;51.992;5.924;2023-04-19T05:10:45;102170.84;;;7.75;66.32
69402;BME280;56589;51.992;5.924;2023-04-19T05:13:11;102170.91;;;7.73;66.30
69402;BME280;56589;51.992;5.924;2023-04-19T05:15:37;102167.50;;;7.70;66.42
69402;BME280;56589;51.992;5.924;2023-04-19T05:18:03;102167.63;;;7.67;66.28
69402;BME280;56589;51.992;5.924;2023-04-19T05:20:30;102165.81;;;7.69;65.92
69402;BME280;56589;51.992;5.924;2023-04-19T05:22:59;102174.38;;;7.74;66.28
69402;BME280;56589;51.992;5.924;2023-04-19T05:25:25;102172.47;;;7.79;65.71
69402;BME280;56589;51.992;5.924;2023-04-19T05:27:52;102180.16;;;7.83;65.92
69402;BME280;56589;51.992;5.924;2023-04-19T05:30:17;102160.94;;;7.86;65.50
69402;BME280;56589;51.992;5.924;2023-04-19T05:32:43;102167.63;;;7.95;65.59
69402;BME280;56589;51.992;5.924;2023-04-19T05:35:09;102174.34;;;8.03;65.25
69402;BME280;56589;51.992;5.924;2023-04-19T05:37:36;102173.31;;;8.09;64.75
69402;BME280;56589;51.992;5.924;2023-04-19T05:40:06;102181.09;;;8.10;64.10
69402;BME280;56589;51.992;5.924;2023-04-19T05:42:32;102181.22;;;8.06;64.33
69402;BME280;56589;51.992;5.924;2023-04-19T05:44:58;102181.22;;;8.06;64.23
69402;BME280;56589;51.992;5.924;2023-04-19T05:47:24;102175.19;;;8.04;64.06
69402;BME280;56589;51.992;5.924;2023-04-19T05:49:50;102172.53;;;8.05;63.71
69402;BME280;56589;51.992;5.924;2023-04-19T05:52:15;102175.91;;;8.09;62.96
69402;BME280;56589;51.992;5.924;2023-04-19T05:54:41;102173.25;;;8.10;62.78
69402;BME280;56589;51.992;5.924;2023-04-19T05:57:10;102175.81;;;8.12;61.79
69402;BME280;56589;51.992;5.924;2023-04-19T05:59:35;102174.91;;;8.13;61.99
69402;BME280;56589;51.992;5.924;2023-04-19T06:02:01;102181.81;;;8.15;61.28
69402;BME280;56589;51.992;5.924;2023-04-19T06:04:27;102175.63;;;8.18;61.24
69402;BME280;56589;51.992;5.924;2023-04-19T06:06:53;102173.66;;;8.25;61.15
69402;BME280;56589;51.992;5.924;2023-04-19T06:09:19;102171.59;;;8.34;60.78
69402;BME280;56589;51.992;5.924;2023-04-19T06:11:45;102177.38;;;8.44;60.22
69402;BME280;56589;51.992;5.924;2023-04-19T06:14:13;102181.34;;;8.56;60.01
69402;BME280;56589;51.992;5.924;2023-04-19T06:16:39;102181.38;;;8.81;59.83
69402;BME280;56589;51.992;5.924;2023-04-19T06:19:05;102178.91;;;9.28;58.43
69402;BME280;56589;51.992;5.924;2023-04-19T06:21:31;102185.00;;;9.75;57.82
69402;BME280;56589;51.992;5.924;2023-04-19T06:23:57;102191.13;;;10.19;57.13
69402;BME280;56589;51.992;5.924;2023-04-19T06:26:22;102186.75;;;10.62;55.50
69402;BME280;56589;51.992;5.924;2023-04-19T06:28:48;102192.44;;;10.94;54.27
69402;BME280;56589;51.992;5.924;2023-04-19T06:31:17;102194.66;;;11.23;54.91
69402;BME280;56589;51.992;5.924;2023-04-19T06:33:42;102188.25;;;11.68;53.10
69402;BME280;56589;51.992;5.924;2023-04-19T06:36:09;102187.66;;;11.99;52.32
69402;BME280;56589;51.992;5.924;2023-04-19T06:38:34;102188.16;;;12.26;49.54
69402;BME280;56589;51.992;5.924;2023-04-19T06:41:00;102192.22;;;12.51;50.19
69402;BME280;56589;51.992;5.924;2023-04-19T06:43:26;102195.38;;;12.75;49.29
69402;BME280;56589;51.992;5.924;2023-04-19T06:45:57;102194.44;;;12.93;47.27
69402;BME280;56589;51.992;5.924;2023-04-19T06:48:25;102196.81;;;13.15;46.87
69402;BME280;56589;51.992;5.924;2023-04-19T06:50:51;102205.47;;;13.34;44.59
69402;BME280;56589;51.992;5.924;2023-04-19T06:53:17;102201.91;;;13.35;43.32
69402;BME280;56589;51.992;5.924;2023-04-19T06:55:43;102195.09;;;13.31;45.07
69402;BME280;56589;51.992;5.924;2023-04-19T06:58:09;102198.69;;;13.30;42.90
69402;BME280;56589;51.992;5.924;2023-04-19T07:00:35;102193.28;;;12.98;43.57
69402;BME280;56589;51.992;5.924;2023-04-19T07:03:01;102199.25;;;12.50;43.10
69402;BME280;56589;51.992;5.924;2023-04-19T07:05:30;102200.03;;;12.16;43.31
69402;BME280;56589;51.992;5.924;2023-04-19T07:07:56;102197.72;;;11.72;41.22
69402;BME280;56589;51.992;5.924;2023-04-19T07:10:22;102213.97;;;11.43;43.20
69402;BME280;56589;51.992;5.924;2023-04-19T07:12:48;102209.84;;;11.17;42.79
69402;BME280;56589;51.992;5.924;2023-04-19T07:15:14;102207.38;;;10.93;43.00
69402;BME280;56589;51.992;5.924;2023-04-19T07:17:40;102200.78;;;10.83;43.77
69402;BME280;56589;51.992;5.924;2023-04-19T07:20:07;102202.63;;;10.81;43.82
69402;BME280;56589;51.992;5.924;2023-04-19T07:22:36;102206.88;;;10.83;44.00
69402;BME280;56589;51.992;5.924;2023-04-19T07:25:02;102204.44;;;10.79;43.28
69402;BME280;56589;51.992;5.924;2023-04-19T07:27:28;102203.19;;;10.67;44.20
69402;BME280;56589;51.992;5.924;2023-04-19T07:29:53;102211.06;;;10.67;42.80
69402;BME280;56589;51.992;5.924;2023-04-19T07:32:19;102211.31;;;10.61;43.65
69402;BME280;56589;51.992;5.924;2023-04-19T07:34:45;102213.53;;;10.70;43.74
69402;BME280;56589;51.992;5.924;2023-04-19T07:37:11;102208.19;;;10.73;43.72
69402;BME280;56589;51.992;5.924;2023-04-19T07:39:39;102202.19;;;10.70;43.01
69402;BME280;56589;51.992;5.924;2023-04-19T07:42:05;102209.47;;;10.63;43.26
69402;BME280;56589;51.992;5.924;2023-04-19T07:44:31;102210.25;;;10.65;43.58
69402;BME280;56589;51.992;5.924;2023-04-19T07:46:56;102202.84;;;10.75;43.55
69402;BME280;56589;51.992;5.924;2023-04-19T07:49:22;102206.16;;;10.80;43.38
69402;BME280;56589;51.992;5.924;2023-04-19T07:51:48;102208.47;;;10.88;43.72
69402;BME280;56589;51.992;5.924;2023-04-19T07:54:14;102208.41;;;10.89;43.55
69402;BME280;56589;51.992;5.924;2023-04-19T07:56:43;102215.31;;;10.92;42.03
69402;BME280;56589;51.992;5.924;2023-04-19T07:59:08;102214.75;;;10.83;41.54
69402;BME280;56589;51.992;5.924;2023-04-19T08:01:34;102204.81;;;10.70;42.48
69402;BME280;56589;51.992;5.924;2023-04-19T08:04:00;102210.66;;;10.76;42.91
69402;BME280;56589;51.992;5.924;2023-04-19T08:06:26;102227.59;;;10.91;42.16
69402;BME280;56589;51.992;5.924;2023-04-19T08:08:52;102211.03;;;10.89;41.37
69402;BME280;56589;51.992;5.924;2023-04-19T08:11:17;102204.34;;;10.82;42.18
69402;BME280;56589;51.992;5.924;2023-04-19T08:13:46;102205.78;;;10.89;42.59
69402;BME280;56589;51.992;5.924;2023-04-19T08:16:12;102207.81;;;11.03;42.26
69402;BME280;56589;51.992;5.924;2023-04-19T08:18:37;102203.94;;;11.12;41.93
69402;BME280;56589;51.992;5.924;2023-04-19T08:21:03;102203.09;;;11.11;41.37
69402;BME280;56589;51.992;5.924;2023-04-19T08:23:29;102192.00;;;11.04;41.48
69402;BME280;56589;51.992;5.924;2023-04-19T08:25:55;102186.66;;;11.06;42.35
69402;BME280;56589;51.992;5.924;2023-04-19T08:28:21;102187.81;;;11.19;41.81
69402;BME280;56589;51.992;5.924;2023-04-19T08:30:50;102188.56;;;11.23;40.23
69402;BME280;56589;51.992;5.924;2023-04-19T08:33:16;102180.66;;;11.23;39.93
69402;BME280;56589;51.992;5.924;2023-04-19T08:35:41;102194.09;;;11.17;39.68
69402;BME280;56589;51.992;5.924;2023-04-19T08:38:07;102189.75;;;11.16;40.45
69402;BME280;56589;51.992;5.924;2023-04-19T08:40:34;102189.22;;;11.28;41.43
69402;BME280;56589;51.992;5.924;2023-04-19T08:43:04;102189.56;;;11.58;40.16
69402;BME280;56589;51.992;5.924;2023-04-19T08:45:30;102195.28;;;11.68;39.54
69402;BME280;56589;51.992;5.924;2023-04-19T08:48:01;102189.00;;;11.70;37.88
69402;BME280;56589;51.992;5.924;2023-04-19T08:50:28;102205.59;;;11.72;37.91
69402;BME280;56589;51.992;5.924;2023-04-19T08:52:54;102192.44;;;11.72;37.25
69402;BME280;56589;51.992;5.924;2023-04-19T08:55:23;102190.19;;;11.64;37.32
69402;BME280;56589;51.992;5.924;2023-04-19T08:57:49;102202.44;;;11.64;38.41
69402;BME280;56589;51.992;5.924;2023-04-19T09:00:16;102196.13;;;11.49;36.77
69402;BME280;56589;51.992;5.924;2023-04-19T09:02:44;102203.56;;;11.40;37.57
69402;BME280;56589;51.992;5.924;2023-04-19T09:05:15;102189.63;;;11.37;37.52
69402;BME280;56589;51.992;5.924;2023-04-19T09:07:41;102182.59;;;11.38;38.09
69402;BME280;56589;51.992;5.924;2023-04-19T09:10:09;102175.34;;;11.43;37.96
69402;BME280;56589;51.992;5.924;2023-04-19T09:12:37;102184.88;;;11.46;38.24
69402;BME280;56589;51.992;5.924;2023-04-19T09:15:05;102181.84;;;11.55;38.87
69402;BME280;56589;51.992;5.924;2023-04-19T09:17:33;102187.59;;;11.63;38.14
69402;BME280;56589;51.992;5.924;2023-04-19T09:19:59;102182.31;;;11.63;38.31
69402;BME280;56589;51.992;5.924;2023-04-19T09:22:28;102175.53;;;11.59;38.26
69402;BME280;56589;51.992;5.924;2023-04-19T09:24:54;102180.84;;;11.57;38.10
69402;BME280;56589;51.992;5.924;2023-04-19T09:27:25;102179.22;;;11.55;38.97
69402;BME280;56589;51.992;5.924;2023-04-19T09:29:53;102179.50;;;11.49;38.60
69402;BME280;56589;51.992;5.924;2023-04-19T09:32:19;102179.50;;;11.49;39.21
69402;BME280;56589;51.992;5.924;2023-04-19T09:34:50;102175.81;;;11.72;39.94
69402;BME280;56589;51.992;5.924;2023-04-19T09:37:18;102181.19;;;11.87;38.17
69402;BME280;56589;51.992;5.924;2023-04-19T09:39:46;102173.63;;;11.99;40.32
69402;BME280;56589;51.992;5.924;2023-04-19T09:42:12;102168.25;;;12.21;40.64
69402;BME280;56589;51.992;5.924;2023-04-19T09:44:38;102175.84;;;12.61;39.79
69402;BME280;56589;51.992;5.924;2023-04-19T09:47:20;102165.75;;;13.37;37.19
69402;BME280;56589;51.992;5.924;2023-04-19T09:49:47;102171.59;;;13.75;37.34
69402;BME280;56589;51.992;5.924;2023-04-19T09:52:13;102172.81;;;13.86;36.95
69402;BME280;56589;51.992;5.924;2023-04-19T09:54:40;102162.47;;;13.97;36.67
69402;BME280;56589;51.992;5.924;2023-04-19T09:57:09;102153.09;;;14.23;34.48
69402;BME280;56589;51.992;5.924;2023-04-19T09:59:35;102164.91;;;14.16;33.91
69402;BME280;56589;51.992;5.924;2023-04-19T10:02:02;102159.84;;;14.13;34.52
69402;BME280;56589;51.992;5.924;2023-04-19T10:04:30;102159.72;;;14.30;34.98
69402;BME280;56589;51.992;5.924;2023-04-19T10:06:56;102150.16;;;14.57;34.87
69402;BME280;56589;51.992;5.924;2023-04-19T10:09:23;102156.91;;;14.63;33.24
69402;BME280;56589;51.992;5.924;2023-04-19T10:11:50;102150.81;;;14.47;32.66
69402;BME280;56589;51.992;5.924;2023-04-19T10:14:22;102145.59;;;14.15;33.22
69402;BME280;56589;51.992;5.924;2023-04-19T10:16:49;102157.38;;;13.94;34.01
69402;BME280;56589;51.992;5.924;2023-04-19T10:19:17;102149.97;;;13.85;35.25
69402;BME280;56589;51.992;5.924;2023-04-19T10:21:46;102152.09;;;13.94;34.80
69402;BME280;56589;51.992;5.924;2023-04-19T10:24:14;102135.91;;;13.84;34.35
69402;BME280;56589;51.992;5.924;2023-04-19T10:27:06;102148.09;;;13.71;34.86
69402;BME280;56589;51.992;5.924;2023-04-19T10:29:58;102142.75;;;13.57;34.74
69402;BME280;56589;51.992;5.924;2023-04-19T10:32:26;102138.09;;;13.44;34.50
69402;BME280;56589;51.992;5.924;2023-04-19T10:34:52;102131.69;;;13.33;34.88
69402;BME280;56589;51.992;5.924;2023-04-19T10:37:21;102136.75;;;13.37;34.82
69402;BME280;56589;51.992;5.924;2023-04-19T10:39:49;102148.66;;;13.44;34.72
69402;BME280;56589;51.992;5.924;2023-04-19T10:42:15;102141.44;;;13.48;34.41
69402;BME280;56589;51.992;5.924;2023-04-19T10:44:41;102144.34;;;13.59;34.78
69402;BME280;56589;51.992;5.924;2023-04-19T10:47:09;102131.84;;;13.63;35.19
69402;BME280;56589;51.992;5.924;2023-04-19T10:49:43;102131.81;;;13.78;34.20
69402;BME280;56589;51.992;5.924;2023-04-19T10:52:25;102125.44;;;13.83;32.92
69402;BME280;56589;51.992;5.924;2023-04-19T10:54:55;102133.97;;;13.72;34.23
69402;BME280;56589;51.992;5.924;2023-04-19T10:57:21;102127.16;;;13.68;33.97
69402;BME280;56589;51.992;5.924;2023-04-19T11:00:22;102131.59;;;13.67;33.34
69402;BME280;56589;51.992;5.924;2023-04-19T11:02:48;102108.94;;;13.63;33.61
69402;BME280;56589;51.992;5.924;2023-04-19T11:05:14;102108.94;;;13.63;33.67
69402;BME280;56589;51.992;5.924;2023-04-19T11:07:41;102109.69;;;13.81;33.07
69402;BME280;56589;51.992;5.924;2023-04-19T11:10:08;102095.66;;;13.81;31.52
69402;BME280;56589;51.992;5.924;2023-04-19T11:12:34;102108.25;;;13.75;30.28
69402;BME280;56589;51.992;5.924;2023-04-19T11:15:01;102104.06;;;13.71;31.36
69402;BME280;56589;51.992;5.924;2023-04-19T11:17:30;102105.72;;;13.74;28.24
69402;BME280;56589;51.992;5.924;2023-04-19T11:19:58;102099.66;;;13.72;29.57
69402;BME280;56589;51.992;5.924;2023-04-19T11:22:29;102092.31;;;13.77;29.53
69402;BME280;56589;51.992;5.924;2023-04-19T11:24:55;102079.38;;;13.88;29.74
69402;BME280;56589;51.992;5.924;2023-04-19T11:27:21;102073.38;;;14.00;29.51
69402;BME280;56589;51.992;5.924;2023-04-19T11:29:47;102065.91;;;14.23;30.46
69402;BME280;56589;51.992;5.924;2023-04-19T11:32:13;102063.69;;;14.45;29.38
69402;BME280;56589;51.992;5.924;2023-04-19T11:34:41;102057.66;;;14.43;28.25
69402;BME280;56589;51.992;5.924;2023-04-19T11:37:08;102049.88;;;14.26;28.58
69402;BME280;56589;51.992;5.924;2023-04-19T11:39:43;102058.34;;;14.17;28.29
69402;BME280;56589;51.992;5.924;2023-04-19T11:42:16;102046.66;;;14.21;29.61
69402;BME280;56589;51.992;5.924;2023-04-19T11:44:47;102041.41;;;14.35;29.95
69402;BME280;56589;51.992;5.924;2023-04-19T11:47:14;102054.16;;;14.43;29.07
69402;BME280;56589;51.992;5.924;2023-04-19T11:49:43;102051.63;;;14.41;29.15
69402;BME280;56589;51.992;5.924;2023-04-19T11:52:09;102045.75;;;14.50;29.03
69402;BME280;56589;51.992;5.924;2023-04-19T11:54:34;102043.97;;;14.51;28.82
69402;BME280;56589;51.992;5.924;2023-04-19T11:57:01;102044.75;;;14.53;28.76
69402;BME280;56589;51.992;5.924;2023-04-19T11:59:29;102035.66;;;14.57;28.42
69402;BME280;56589;51.992;5.924;2023-04-19T12:02:06;102038.25;;;14.73;28.88
69402;BME280;56589;51.992;5.924;2023-04-19T12:04:34;102038.34;;;14.85;28.58
69402;BME280;56589;51.992;5.924;2023-04-19T12:07:04;102026.44;;;14.93;28.59
69402;BME280;56589;51.992;5.924;2023-04-19T12:09:32;102023.06;;;14.91;28.09
69402;BME280;56589;51.992;5.924;2023-04-19T12:11:59;102027.50;;;14.90;28.71
69402;BME280;56589;51.992;5.924;2023-04-19T12:14:25;102018.22;;;14.97;28.00
69402;BME280;56589;51.992;5.924;2023-04-19T12:17:04;102022.50;;;14.85;27.54
69402;BME280;56589;51.992;5.924;2023-04-19T12:19:34;102020.72;;;14.72;28.01
69402;BME280;56589;51.992;5.924;2023-04-19T12:22:10;102011.44;;;14.65;27.22
69402;BME280;56589;51.992;5.924;2023-04-19T12:24:38;102015.88;;;14.64;28.24
69402;BME280;56589;51.992;5.924;2023-04-19T12:27:04;102016.88;;;14.62;27.87
69402;BME280;56589;51.992;5.924;2023-04-19T12:29:30;102005.56;;;14.59;28.57
69402;BME280;56589;51.992;5.924;2023-04-19T12:31:56;102011.34;;;14.66;28.42
69402;BME280;56589;51.992;5.924;2023-04-19T12:34:22;101998.88;;;14.68;28.66
69402;BME280;56589;51.992;5.924;2023-04-19T12:36:48;101998.97;;;14.81;29.01
69402;BME280;56589;51.992;5.924;2023-04-19T12:39:16;102012.94;;;14.97;28.50
69402;BME280;56589;51.992;5.924;2023-04-19T12:41:42;102002.34;;;14.97;28.35
69402;BME280;56589;51.992;5.924;2023-04-19T12:44:08;101993.97;;;14.91;28.79
69402;BME280;56589;51.992;5.924;2023-04-19T12:46:34;101981.59;;;14.91;28.75
69402;BME280;56589;51.992;5.924;2023-04-19T12:49:01;101988.47;;;14.94;29.34
69402;BME280;56589;51.992;5.924;2023-04-19T12:51:29;101989.88;;;14.99;28.48
69402;BME280;56589;51.992;5.924;2023-04-19T12:53:54;101987.81;;;14.90;27.02